createdAt,value
2019-03-22T00:05:42.450Z,2.40
2019-03-22T00:08:12.676Z,2.40
2019-03-22T00:10:42.951Z,2.40
2019-03-22T00:13:13.180Z,2.40
2019-03-22T00:15:43.504Z,2.40
2019-03-22T00:18:13.732Z,2.30
2019-03-22T00:20:43.953Z,2.30
2019-03-22T00:23:14.178Z,2.30
2019-03-22T00:25:44.444Z,2.30
2019-03-22T00:28:14.696Z,2.30
2019-03-22T00:30:44.936Z,2.20
2019-03-22T00:33:15.132Z,2.20
2019-03-22T00:35:45.337Z,2.20
2019-03-22T00:38:15.559Z,2.10
2019-03-22T00:40:45.781Z,2.20
2019-03-22T00:43:16.057Z,2.10
2019-03-22T00:45:46.322Z,2.10
2019-03-22T00:48:16.500Z,2.10
2019-03-22T00:50:46.769Z,2.00
2019-03-22T00:53:16.966Z,2.00
2019-03-22T00:55:47.212Z,2.00
2019-03-22T00:58:17.448Z,2.00
2019-03-22T01:00:47.704Z,2.00
2019-03-22T01:03:17.917Z,2.00
2019-03-22T01:05:48.167Z,2.00
2019-03-22T01:08:18.459Z,1.90
2019-03-22T01:10:48.694Z,1.90
2019-03-22T01:13:18.913Z,1.90
2019-03-22T01:15:49.151Z,1.90
2019-03-22T01:18:19.495Z,1.90
2019-03-22T01:20:49.761Z,1.80
2019-03-22T01:23:19.965Z,1.80
2019-03-22T01:25:50.235Z,1.90
2019-03-22T01:28:20.487Z,1.90
2019-03-22T01:30:50.753Z,1.90
2019-03-22T01:33:20.965Z,1.90
2019-03-22T01:35:51.200Z,1.90
2019-03-22T01:38:21.400Z,1.90
2019-03-22T01:40:51.645Z,1.90
2019-03-22T01:43:21.891Z,1.90
2019-03-22T01:45:52.139Z,1.90
2019-03-22T01:48:22.437Z,1.90
2019-03-22T01:50:52.759Z,1.90
2019-03-22T01:53:22.961Z,2.00
2019-03-22T01:55:53.200Z,2.00
2019-03-22T01:58:23.408Z,2.00
2019-03-22T02:00:53.775Z,2.10
2019-03-22T02:03:23.990Z,2.10
2019-03-22T02:05:54.224Z,2.10
2019-03-22T02:08:24.444Z,2.10
2019-03-22T02:10:54.685Z,2.10
2019-03-22T02:13:24.904Z,2.10
2019-03-22T02:15:55.135Z,2.10
2019-03-22T02:18:25.347Z,2.10
2019-03-22T02:20:55.617Z,2.10
2019-03-22T02:23:25.824Z,2.20
2019-03-22T02:25:56.035Z,2.20
2019-03-22T02:28:26.325Z,2.30
2019-03-22T02:30:56.563Z,2.30
2019-03-22T02:33:26.830Z,2.30
2019-03-22T02:35:57.007Z,2.40
2019-03-22T02:38:27.277Z,2.50
2019-03-22T02:40:57.510Z,2.50
2019-03-22T02:43:27.753Z,2.60
2019-03-22T02:45:57.983Z,2.70
2019-03-22T02:48:28.198Z,2.80
2019-03-22T02:50:58.424Z,2.80
2019-03-22T02:53:28.780Z,2.90
2019-03-22T02:55:59.431Z,3.00
2019-03-22T02:58:29.800Z,3.10
2019-03-22T03:01:00.022Z,3.10
2019-03-22T03:03:30.297Z,3.20
2019-03-22T03:06:00.500Z,3.20
2019-03-22T03:08:30.762Z,3.30
2019-03-22T03:11:01.027Z,3.30
2019-03-22T03:13:31.289Z,3.40
2019-03-22T03:16:01.491Z,3.40
2019-03-22T03:18:31.717Z,3.50
2019-03-22T03:21:02.004Z,3.50
2019-03-22T03:23:32.222Z,3.60
2019-03-22T03:26:02.415Z,3.60
2019-03-22T03:28:37.170Z,3.70
2019-03-22T03:31:04.536Z,3.70
2019-03-22T03:33:34.849Z,3.80
2019-03-22T03:36:05.140Z,3.80
2019-03-22T03:38:35.498Z,3.90
2019-03-22T03:41:06.043Z,3.90
2019-03-22T03:43:36.293Z,3.90
2019-03-22T03:46:06.508Z,4.00
2019-03-22T03:48:36.766Z,4.00
2019-03-22T03:51:06.948Z,4.10
2019-03-22T03:53:37.196Z,4.10
2019-03-22T03:56:07.972Z,4.10
2019-03-22T03:58:51.600Z,4.20
2019-03-22T04:01:10.126Z,4.20
2019-03-22T04:03:40.461Z,4.20
2019-03-22T04:06:10.704Z,4.30
2019-03-22T04:08:40.910Z,4.30
2019-03-22T04:11:11.124Z,4.30
2019-03-22T04:13:41.342Z,4.40
2019-03-22T04:16:11.563Z,4.40
2019-03-22T04:18:41.791Z,4.40
2019-03-22T04:21:12.003Z,4.50
2019-03-22T04:23:42.299Z,4.50
2019-03-22T04:26:12.557Z,4.50
2019-03-22T04:28:42.795Z,4.50
2019-03-22T04:31:13.020Z,4.60
2019-03-22T04:33:43.343Z,4.60
2019-03-22T04:36:13.586Z,4.60
2019-03-22T04:38:43.812Z,4.60
2019-03-22T04:41:14.026Z,4.70
2019-03-22T04:43:44.274Z,4.70
2019-03-22T04:46:16.193Z,4.70
2019-03-22T04:48:47.547Z,4.70
2019-03-22T04:51:18.819Z,4.80
2019-03-22T04:53:57.928Z,4.80
2019-03-22T04:56:30.196Z,4.80
2019-03-22T04:59:01.040Z,4.90
2019-03-22T05:01:32.342Z,4.90
2019-03-22T05:04:04.085Z,4.90
2019-03-22T05:06:35.801Z,5.00
2019-03-22T05:09:09.896Z,5.00
2019-03-22T05:11:40.726Z,5.00
2019-03-22T05:14:12.654Z,5.00
2019-03-22T05:16:45.915Z,5.00
2019-03-22T05:19:17.085Z,5.10
2019-03-22T05:21:48.234Z,5.10
2019-03-22T05:24:19.749Z,5.10
2019-03-22T05:26:50.628Z,5.20
2019-03-22T05:29:30.275Z,5.20
2019-03-22T05:32:08.021Z,5.20
2019-03-22T05:34:38.263Z,5.30
2019-03-22T05:37:08.695Z,5.30
2019-03-22T05:39:39.635Z,5.30
2019-03-22T05:42:09.897Z,5.40
2019-03-22T05:44:40.134Z,5.40
2019-03-22T05:47:10.360Z,5.40
2019-03-22T05:49:40.601Z,5.50
2019-03-22T05:52:10.814Z,5.50
2019-03-22T05:54:41.049Z,5.50
2019-03-22T05:57:13.785Z,5.60
2019-03-22T05:59:43.273Z,5.60
2019-03-22T06:02:13.597Z,5.60
2019-03-22T06:04:43.918Z,5.70
2019-03-22T06:07:14.156Z,5.70
2019-03-22T06:09:44.408Z,5.80
2019-03-22T06:12:14.620Z,5.80
2019-03-22T06:14:44.895Z,5.90
2019-03-22T06:17:15.129Z,5.90
2019-03-22T06:19:45.380Z,6.00
2019-03-22T06:22:15.616Z,6.00
2019-03-22T06:24:45.826Z,6.10
2019-03-22T06:27:16.012Z,6.10
2019-03-22T06:29:54.176Z,6.10
2019-03-22T06:32:18.554Z,6.20
2019-03-22T06:34:48.803Z,6.20
2019-03-22T06:37:19.051Z,6.30
2019-03-22T06:39:49.253Z,6.30
2019-03-22T06:42:19.488Z,6.30
2019-03-22T06:44:49.700Z,6.40
2019-03-22T06:47:19.942Z,6.40
2019-03-22T06:49:50.163Z,6.50
2019-03-22T06:52:20.494Z,6.50
2019-03-22T06:54:50.698Z,6.60
2019-03-22T06:57:20.948Z,6.60
2019-03-22T06:59:51.186Z,6.70
2019-03-22T07:02:21.476Z,6.70
2019-03-22T07:04:51.670Z,6.80
2019-03-22T07:07:21.888Z,6.90
2019-03-22T07:09:52.100Z,7.00
2019-03-22T07:12:22.355Z,7.00
2019-03-22T07:14:52.605Z,7.00
2019-03-22T07:17:24.005Z,7.10
2019-03-22T07:19:54.251Z,7.10
2019-03-22T07:22:24.499Z,7.20
2019-03-22T07:24:54.727Z,7.30
2019-03-22T07:27:24.942Z,7.30
2019-03-22T07:29:55.178Z,7.40
2019-03-22T07:32:25.389Z,7.50
2019-03-22T07:34:55.600Z,7.50
2019-03-22T07:37:25.873Z,7.60
2019-03-22T07:39:56.132Z,7.60
2019-03-22T07:42:26.424Z,7.70
2019-03-22T07:44:56.639Z,7.80
2019-03-22T07:47:26.944Z,7.80
2019-03-22T07:49:57.130Z,7.90
2019-03-22T07:52:27.362Z,8.00
2019-03-22T07:54:57.584Z,8.10
2019-03-22T07:57:27.846Z,8.20
2019-03-22T07:59:58.046Z,8.20
2019-03-22T08:02:28.345Z,8.30
2019-03-22T08:04:58.535Z,8.40
2019-03-22T08:07:29.199Z,8.50
2019-03-22T08:09:59.499Z,8.50
2019-03-22T08:12:29.874Z,8.60
2019-03-22T08:15:00.378Z,8.70
2019-03-22T08:17:30.710Z,8.80
2019-03-22T08:20:00.989Z,8.90
2019-03-22T08:22:31.454Z,8.90
2019-03-22T08:25:01.628Z,9.10
2019-03-22T08:27:31.913Z,9.20
2019-03-22T08:30:02.522Z,9.20
2019-03-22T08:32:32.788Z,9.40
2019-03-22T08:35:02.981Z,9.50
2019-03-22T08:37:33.320Z,9.60
2019-03-22T08:40:03.594Z,9.70
2019-03-22T08:42:33.909Z,9.70
2019-03-22T08:45:04.303Z,9.80
2019-03-22T08:47:34.852Z,9.90
2019-03-22T08:50:05.498Z,10.00
2019-03-22T08:52:35.699Z,10.10
2019-03-22T08:55:06.241Z,10.20
2019-03-22T08:57:36.531Z,10.30
2019-03-22T09:00:08.144Z,10.30
2019-03-22T09:18:21.820Z,10.60
2019-03-22T09:20:52.133Z,10.60
2019-03-22T09:23:22.435Z,10.60
2019-03-22T09:25:52.732Z,10.60
2019-03-22T09:28:22.960Z,10.60
2019-03-22T09:30:53.230Z,10.60
2019-03-22T09:33:23.451Z,10.60
2019-03-22T09:35:53.643Z,10.70
2019-03-22T09:38:23.900Z,10.70
2019-03-22T09:40:54.130Z,10.70
2019-03-22T09:43:24.475Z,10.80
2019-03-22T09:45:54.723Z,10.80
2019-03-22T09:48:25.059Z,10.90
2019-03-22T09:50:55.351Z,10.90
2019-03-22T09:53:25.626Z,11.00
2019-03-22T09:56:02.094Z,11.00
2019-03-22T09:58:39.821Z,11.10
2019-03-22T10:01:23.877Z,11.10
2019-03-22T10:04:49.708Z,11.10
2019-03-22T10:07:26.554Z,11.10
2019-03-22T10:13:48.319Z,11.30
2019-03-22T10:16:33.145Z,11.40
2019-03-22T10:19:11.690Z,11.40
2019-03-22T10:21:51.125Z,11.50
2019-03-22T10:24:30.241Z,11.50
2019-03-22T10:27:24.990Z,11.60
2019-03-22T10:33:39.978Z,11.90
2019-03-22T10:36:50.068Z,12.10
2019-03-22T10:39:32.602Z,12.10
2019-03-22T10:59:08.739Z,12.90
2019-03-22T15:15:09.808Z,12.70
2019-03-22T15:18:17.997Z,12.70
2019-03-22T15:21:05.891Z,12.70
2019-03-22T15:24:10.826Z,12.70
2019-03-22T15:26:59.032Z,12.60
2019-03-22T15:29:48.883Z,12.60
2019-03-22T15:32:41.258Z,12.60
2019-03-22T15:35:38.417Z,12.60
2019-03-22T15:38:40.146Z,12.60
2019-03-22T15:41:10.728Z,12.60
2019-03-22T15:43:59.732Z,12.50
2019-03-22T15:46:34.654Z,12.50
2019-03-22T15:49:06.082Z,12.50
2019-03-22T15:51:39.440Z,12.50
2019-03-22T15:54:09.912Z,12.40
2019-03-22T15:56:40.861Z,12.40
2019-03-22T15:59:11.882Z,12.30
2019-03-22T16:01:52.958Z,12.30
2019-03-22T16:04:24.283Z,12.20
2019-03-22T16:06:55.673Z,12.20
2019-03-22T16:09:33.035Z,12.10
2019-03-22T16:12:05.484Z,12.00
2019-03-22T16:14:36.011Z,12.00
2019-03-22T16:17:06.899Z,11.90
2019-03-22T16:19:37.428Z,11.80
2019-03-22T16:22:07.928Z,11.80
2019-03-22T16:24:41.225Z,11.70
2019-03-22T16:27:25.819Z,11.60
2019-03-22T16:29:57.394Z,11.50
2019-03-22T16:32:30.277Z,11.40
2019-03-22T16:35:02.328Z,11.30
2019-03-22T16:37:45.764Z,11.30
2019-03-22T16:40:23.867Z,11.20
2019-03-22T16:43:10.694Z,11.10
2019-03-22T16:45:56.249Z,11.00
2019-03-22T16:48:28.474Z,10.90
2019-03-22T16:50:59.012Z,10.80
2019-03-22T16:53:33.485Z,10.70
2019-03-22T16:56:04.513Z,10.50
2019-03-22T16:58:35.571Z,10.50
2019-03-22T17:01:07.167Z,10.30
2019-03-22T17:03:38.636Z,10.20
2019-03-22T17:06:18.744Z,10.10
2019-03-22T17:09:06.928Z,10.00
2019-03-22T17:11:49.140Z,9.90
2019-03-22T17:14:40.713Z,9.80
2019-03-22T17:17:31.719Z,9.60
2019-03-22T17:20:21.770Z,9.60
2019-03-22T17:22:53.262Z,9.50
2019-03-22T17:25:34.118Z,9.40
2019-03-22T17:28:17.009Z,9.30
2019-03-22T17:30:55.908Z,9.20
2019-03-22T17:33:43.097Z,9.10
2019-03-22T17:36:13.512Z,9.10
2019-03-22T17:38:44.319Z,9.00
2019-03-22T17:41:21.390Z,8.90
2019-03-22T17:43:51.531Z,8.80
2019-03-22T17:46:21.821Z,8.70
2019-03-22T17:48:54.037Z,8.60
2019-03-22T17:51:42.089Z,8.50
2019-03-22T17:54:26.270Z,8.50
2019-03-22T17:56:57.518Z,8.50
2019-03-22T17:59:28.670Z,8.40
2019-03-22T18:02:00.127Z,8.20
2019-03-22T18:04:30.563Z,8.20
2019-03-22T18:07:00.924Z,8.10
2019-03-22T18:09:37.908Z,8.00
2019-03-22T18:12:12.359Z,7.90
2019-03-22T18:14:42.908Z,7.80
2019-03-22T18:17:15.376Z,7.80
2019-03-22T18:19:45.970Z,7.70
2019-03-22T18:22:16.547Z,7.60
2019-03-22T18:24:48.799Z,7.50
2019-03-22T18:27:19.071Z,7.50
2019-03-22T18:29:49.303Z,7.40
2019-03-22T18:32:19.682Z,7.40
2019-03-22T18:34:50.161Z,7.30
2019-03-22T18:37:23.684Z,7.20
2019-03-22T18:39:56.614Z,7.20
2019-03-22T18:42:27.432Z,7.10
2019-03-22T18:44:57.874Z,7.10
2019-03-22T18:47:28.148Z,7.10
2019-03-22T18:49:58.654Z,7.00
2019-03-22T18:52:28.984Z,7.00
2019-03-22T18:54:59.200Z,6.90
2019-03-22T18:57:29.393Z,6.90
2019-03-22T18:59:59.787Z,6.80
2019-03-22T19:02:29.980Z,6.70
2019-03-22T19:05:01.654Z,6.70
2019-03-22T19:07:33.578Z,6.50
2019-03-22T19:10:06.003Z,6.50
2019-03-22T19:12:36.305Z,6.40
2019-03-22T19:15:08.655Z,6.30
2019-03-22T19:17:41.427Z,6.20
2019-03-22T19:20:12.829Z,6.20
2019-03-22T19:22:43.866Z,6.10
2019-03-22T19:25:14.621Z,6.10
2019-03-22T19:27:45.652Z,6.00
2019-03-22T19:30:18.961Z,5.90
2019-03-22T19:32:49.536Z,5.90
2019-03-22T19:35:21.060Z,5.90
2019-03-22T19:37:52.823Z,5.90
2019-03-22T19:40:27.232Z,5.90
2019-03-22T19:42:57.397Z,5.90
2019-03-22T19:45:28.511Z,5.80
2019-03-22T19:48:01.181Z,5.80
2019-03-22T20:08:14.000Z,5.80
2019-03-22T20:10:44.279Z,5.90
2019-03-22T20:13:14.548Z,5.80
2019-03-22T20:15:44.837Z,5.80
2019-03-22T20:18:15.006Z,5.90
2019-03-22T20:20:45.237Z,6.00
2019-03-22T20:23:15.434Z,6.00
2019-03-22T20:25:45.666Z,5.90
2019-03-22T20:28:15.871Z,5.80
2019-03-22T20:30:46.466Z,5.70
2019-03-22T20:33:16.684Z,5.60
2019-03-22T20:35:46.930Z,5.60
2019-03-22T20:38:17.117Z,5.60
2019-03-22T20:40:47.686Z,5.60
2019-03-22T20:43:17.884Z,5.50
2019-03-22T20:45:48.197Z,5.40
2019-03-22T20:48:18.374Z,5.30
2019-03-22T20:50:48.633Z,5.30
2019-03-22T20:53:21.259Z,5.20
2019-03-22T20:55:51.660Z,5.10
2019-03-22T20:58:21.856Z,5.10
2019-03-22T21:00:52.039Z,5.00
2019-03-22T21:03:23.186Z,5.00
2019-03-22T21:05:53.434Z,4.90
2019-03-22T21:08:23.618Z,4.80
2019-03-22T21:10:53.862Z,4.80
2019-03-22T21:13:24.073Z,4.70
2019-03-22T21:15:54.351Z,4.70
2019-03-22T21:18:24.586Z,4.60
2019-03-22T21:20:54.821Z,4.60
2019-03-22T21:23:35.761Z,4.60
2019-03-22T21:25:56.934Z,4.50
2019-03-22T21:28:27.254Z,4.50
2019-03-22T21:30:57.530Z,4.40
2019-03-22T21:33:27.755Z,4.40
2019-03-22T21:35:57.976Z,4.30
2019-03-22T21:38:28.136Z,4.30
2019-03-22T21:40:58.294Z,4.30
2019-03-22T21:43:28.468Z,4.20
2019-03-22T21:45:58.753Z,4.20
2019-03-22T21:48:30.414Z,4.10
2019-03-22T21:51:00.625Z,4.10
2019-03-22T21:53:30.854Z,4.10
2019-03-22T21:56:01.020Z,4.00
2019-03-22T21:58:31.246Z,4.00
2019-03-22T22:01:01.393Z,4.00
2019-03-22T22:03:31.594Z,3.90
2019-03-22T22:06:01.915Z,3.80
2019-03-22T22:08:32.107Z,3.80
2019-03-22T22:11:02.301Z,3.80
2019-03-22T22:13:32.529Z,3.70
2019-03-22T22:16:02.743Z,3.70
2019-03-22T22:18:32.947Z,3.70
2019-03-22T22:21:03.086Z,3.60
2019-03-22T22:23:33.288Z,3.60
2019-03-22T22:26:03.473Z,3.60
2019-03-22T22:28:33.657Z,3.60
2019-03-22T22:31:03.847Z,3.50
2019-03-22T22:33:34.058Z,3.50
2019-03-22T22:36:04.219Z,3.50
2019-03-22T22:38:34.427Z,3.50
2019-03-22T22:41:04.580Z,3.50
2019-03-22T22:43:34.809Z,3.50
2019-03-22T22:46:04.959Z,3.50
2019-03-22T22:48:35.148Z,3.40
2019-03-22T22:51:06.405Z,3.40
2019-03-22T22:53:36.700Z,3.40
2019-03-22T22:56:06.992Z,3.40
2019-03-22T22:58:37.241Z,3.40
2019-03-22T23:01:07.608Z,3.40
2019-03-22T23:03:37.827Z,3.30
2019-03-22T23:06:09.755Z,3.30
2019-03-22T23:08:39.946Z,3.30
2019-03-22T23:11:10.130Z,3.30
2019-03-22T23:13:40.403Z,3.30
2019-03-22T23:16:10.652Z,3.30
2019-03-22T23:18:40.883Z,3.20
2019-03-22T23:21:11.145Z,3.30
2019-03-22T23:23:41.373Z,3.20
2019-03-22T23:26:11.576Z,3.20
2019-03-22T23:28:42.337Z,3.20
2019-03-22T23:31:12.630Z,3.20
2019-03-22T23:33:43.453Z,3.20
2019-03-22T23:36:20.271Z,3.10
2019-03-22T23:38:46.418Z,3.10
2019-03-22T23:41:19.959Z,3.10
2019-03-22T23:43:50.384Z,3.10
2019-03-22T23:46:20.538Z,3.10
2019-03-22T23:48:50.729Z,3.10
2019-03-22T23:51:20.907Z,3.10
2019-03-22T23:53:51.146Z,3.10
2019-03-22T23:56:21.629Z,3.10
2019-03-22T23:58:52.466Z,3.10
